sensor_id;sensor_type;location;lat;lon;timestamp;P1;durP1;ratioP1;P2;durP2;ratioP2
12373;SDS011;6251;51.762;8.660;2023-04-08T01:09:11;12.03;;;8.37;;
12373;SDS011;6251;51.762;8.660;2023-04-08T02:50:45;13.02;;;8.65;;
12373;SDS011;6251;51.762;8.660;2023-04-08T04:01:48;10.35;;;7.72;;
12373;SDS011;6251;51.762;8.660;2023-04-08T04:11:50;9.80;;;8.43;;
12373;SDS011;6251;51.762;8.660;2023-04-08T04:21:50;11.07;;;8.18;;
12373;SDS011;6251;51.762;8.660;2023-04-08T04:31:51;9.93;;;8.30;;
12373;SDS011;6251;51.762;8.660;2023-04-08T04:41:52;10.50;;;7.65;;
12373;SDS011;6251;51.762;8.660;2023-04-08T04:51:52;8.68;;;7.12;;
12373;SDS011;6251;51.762;8.660;2023-04-08T05:01:53;9.63;;;7.95;;
12373;SDS011;6251;51.762;8.660;2023-04-08T05:11:56;8.10;;;7.25;;
12373;SDS011;6251;51.762;8.660;2023-04-08T05:21:57;8.95;;;7.20;;
12373;SDS011;6251;51.762;8.660;2023-04-08T05:31:57;8.48;;;6.80;;
12373;SDS011;6251;51.762;8.660;2023-04-08T05:41:58;8.88;;;7.97;;
12373;SDS011;6251;51.762;8.660;2023-04-08T05:51:58;11.82;;;8.10;;
12373;SDS011;6251;51.762;8.660;2023-04-08T06:01:59;8.15;;;6.82;;
12373;SDS011;6251;51.762;8.660;2023-04-08T06:12:00;10.20;;;7.18;;
12373;SDS011;6251;51.762;8.660;2023-04-08T06:22:00;10.00;;;7.75;;
12373;SDS011;6251;51.762;8.660;2023-04-08T06:32:01;8.30;;;7.40;;
12373;SDS011;6251;51.762;8.660;2023-04-08T06:42:01;13.77;;;8.05;;
12373;SDS011;6251;51.762;8.660;2023-04-08T06:52:02;10.50;;;7.75;;
12373;SDS011;6251;51.762;8.660;2023-04-08T07:02:02;10.27;;;8.30;;
12373;SDS011;6251;51.762;8.660;2023-04-08T07:12:03;12.77;;;8.95;;
12373;SDS011;6251;51.762;8.660;2023-04-08T07:22:04;10.80;;;8.50;;
12373;SDS011;6251;51.762;8.660;2023-04-08T07:32:04;10.23;;;8.20;;
12373;SDS011;6251;51.762;8.660;2023-04-08T07:42:05;12.60;;;8.80;;
12373;SDS011;6251;51.762;8.660;2023-04-08T07:52:06;14.20;;;10.45;;
12373;SDS011;6251;51.762;8.660;2023-04-08T08:02:07;15.82;;;11.05;;
12373;SDS011;6251;51.762;8.660;2023-04-08T08:12:07;14.80;;;10.65;;
12373;SDS011;6251;51.762;8.660;2023-04-08T08:22:10;16.73;;;11.63;;
12373;SDS011;6251;51.762;8.660;2023-04-08T08:32:10;13.27;;;10.15;;
12373;SDS011;6251;51.762;8.660;2023-04-08T08:42:24;15.43;;;10.68;;
12373;SDS011;6251;51.762;8.660;2023-04-08T08:52:25;10.18;;;8.25;;
12373;SDS011;6251;51.762;8.660;2023-04-08T09:02:26;10.98;;;8.75;;
12373;SDS011;6251;51.762;8.660;2023-04-08T09:12:29;9.35;;;8.27;;
12373;SDS011;6251;51.762;8.660;2023-04-08T09:22:30;9.38;;;7.53;;
12373;SDS011;6251;51.762;8.660;2023-04-08T09:32:45;10.52;;;8.48;;
12373;SDS011;6251;51.762;8.660;2023-04-08T09:42:50;9.93;;;8.45;;
12373;SDS011;6251;51.762;8.660;2023-04-08T09:52:55;9.40;;;7.95;;
12373;SDS011;6251;51.762;8.660;2023-04-08T10:13:12;7.95;;;7.05;;
12373;SDS011;6251;51.762;8.660;2023-04-08T10:23:15;12.82;;;8.30;;
12373;SDS011;6251;51.762;8.660;2023-04-08T10:33:20;9.50;;;7.60;;
12373;SDS011;6251;51.762;8.660;2023-04-08T10:43:24;9.00;;;7.05;;
12373;SDS011;6251;51.762;8.660;2023-04-08T11:03:31;11.12;;;8.20;;
12373;SDS011;6251;51.762;8.660;2023-04-08T11:13:42;11.50;;;8.00;;
12373;SDS011;6251;51.762;8.660;2023-04-08T11:23:47;10.80;;;7.70;;
12373;SDS011;6251;51.762;8.660;2023-04-08T11:33:51;11.18;;;8.63;;
12373;SDS011;6251;51.762;8.660;2023-04-08T11:43:54;11.50;;;8.57;;
12373;SDS011;6251;51.762;8.660;2023-04-08T11:53:58;14.65;;;10.23;;
12373;SDS011;6251;51.762;8.660;2023-04-08T12:03:59;13.32;;;9.77;;
12373;SDS011;6251;51.762;8.660;2023-04-08T12:14:01;13.30;;;9.63;;
12373;SDS011;6251;51.762;8.660;2023-04-08T12:24:01;13.90;;;9.52;;
12373;SDS011;6251;51.762;8.660;2023-04-08T12:34:02;14.13;;;9.95;;
12373;SDS011;6251;51.762;8.660;2023-04-08T12:44:08;14.63;;;9.38;;
12373;SDS011;6251;51.762;8.660;2023-04-08T12:54:08;13.90;;;9.65;;
12373;SDS011;6251;51.762;8.660;2023-04-08T13:04:09;15.80;;;9.73;;
12373;SDS011;6251;51.762;8.660;2023-04-08T13:14:09;17.67;;;11.50;;
12373;SDS011;6251;51.762;8.660;2023-04-08T13:24:12;14.35;;;10.02;;
12373;SDS011;6251;51.762;8.660;2023-04-08T13:34:13;19.27;;;13.20;;
12373;SDS011;6251;51.762;8.660;2023-04-08T13:44:13;17.30;;;11.80;;
12373;SDS011;6251;51.762;8.660;2023-04-08T13:54:15;20.45;;;13.62;;
12373;SDS011;6251;51.762;8.660;2023-04-08T14:04:16;18.90;;;12.70;;
12373;SDS011;6251;51.762;8.660;2023-04-08T14:14:17;17.27;;;11.50;;
12373;SDS011;6251;51.762;8.660;2023-04-08T14:24:17;15.65;;;12.05;;
12373;SDS011;6251;51.762;8.660;2023-04-08T14:34:18;14.55;;;10.55;;
12373;SDS011;6251;51.762;8.660;2023-04-08T14:44:19;19.13;;;12.57;;
12373;SDS011;6251;51.762;8.660;2023-04-08T14:54:19;15.98;;;10.50;;
12373;SDS011;6251;51.762;8.660;2023-04-08T15:04:20;16.45;;;10.98;;
12373;SDS011;6251;51.762;8.660;2023-04-08T15:14:20;16.90;;;11.52;;
12373;SDS011;6251;51.762;8.660;2023-04-08T15:24:21;16.98;;;11.32;;
12373;SDS011;6251;51.762;8.660;2023-04-08T15:34:22;17.23;;;12.52;;
12373;SDS011;6251;51.762;8.660;2023-04-08T15:44:22;17.77;;;11.93;;
12373;SDS011;6251;51.762;8.660;2023-04-08T15:54:23;18.08;;;11.93;;
12373;SDS011;6251;51.762;8.660;2023-04-08T16:04:24;17.27;;;11.98;;
12373;SDS011;6251;51.762;8.660;2023-04-08T16:14:26;18.50;;;12.43;;
12373;SDS011;6251;51.762;8.660;2023-04-08T16:24:28;23.73;;;14.85;;
12373;SDS011;6251;51.762;8.660;2023-04-08T16:34:29;17.08;;;11.32;;
12373;SDS011;6251;51.762;8.660;2023-04-08T16:44:29;17.08;;;11.73;;
12373;SDS011;6251;51.762;8.660;2023-04-08T16:54:30;17.08;;;11.55;;
12373;SDS011;6251;51.762;8.660;2023-04-08T17:04:31;17.70;;;11.23;;
12373;SDS011;6251;51.762;8.660;2023-04-08T17:14:34;22.33;;;11.98;;
12373;SDS011;6251;51.762;8.660;2023-04-08T17:24:35;19.45;;;11.50;;
12373;SDS011;6251;51.762;8.660;2023-04-08T17:34:36;19.35;;;11.95;;
12373;SDS011;6251;51.762;8.660;2023-04-08T17:44:36;22.23;;;13.25;;
12373;SDS011;6251;51.762;8.660;2023-04-08T17:54:40;21.35;;;13.23;;
12373;SDS011;6251;51.762;8.660;2023-04-08T18:04:41;25.95;;;14.63;;
12373;SDS011;6251;51.762;8.660;2023-04-08T18:14:42;21.80;;;13.20;;
12373;SDS011;6251;51.762;8.660;2023-04-08T18:24:42;23.02;;;14.18;;
12373;SDS011;6251;51.762;8.660;2023-04-08T18:34:43;21.27;;;12.05;;
12373;SDS011;6251;51.762;8.660;2023-04-08T18:44:43;19.08;;;11.23;;
12373;SDS011;6251;51.762;8.660;2023-04-08T18:54:44;15.27;;;10.50;;
12373;SDS011;6251;51.762;8.660;2023-04-08T19:04:45;18.48;;;10.45;;
12373;SDS011;6251;51.762;8.660;2023-04-08T19:14:45;15.13;;;10.02;;
12373;SDS011;6251;51.762;8.660;2023-04-08T19:24:46;16.12;;;10.60;;
12373;SDS011;6251;51.762;8.660;2023-04-08T19:34:47;15.90;;;10.30;;
12373;SDS011;6251;51.762;8.660;2023-04-08T19:44:47;15.15;;;9.93;;
12373;SDS011;6251;51.762;8.660;2023-04-08T19:54:49;18.02;;;11.57;;
12373;SDS011;6251;51.762;8.660;2023-04-08T20:04:50;16.20;;;10.90;;
12373;SDS011;6251;51.762;8.660;2023-04-08T20:14:51;17.02;;;11.18;;
12373;SDS011;6251;51.762;8.660;2023-04-08T20:24:51;18.73;;;11.95;;
12373;SDS011;6251;51.762;8.660;2023-04-08T20:34:52;23.67;;;14.70;;
12373;SDS011;6251;51.762;8.660;2023-04-08T20:44:52;20.75;;;12.82;;
12373;SDS011;6251;51.762;8.660;2023-04-08T20:54:53;19.00;;;11.82;;
12373;SDS011;6251;51.762;8.660;2023-04-08T23:07:39;24.40;;;14.13;;
